Time,TemperatureF,DewpointF,PressureIn,WindDirection,WindDirectionDegrees,WindSpeedMPH,WindSpeedGustMPH,Humidity,HourlyPrecipIn,Conditions,Clouds,dailyrainin,SoftwareType,DateUTC
2013-03-18 00:12:00,58.0,47.0,29.42,North,4,5.0,-999.0,69,0.00,,,0.00,,2013-03-18 07:12:00,
2013-03-18 00:22:00,58.0,47.0,29.42,North,4,5.0,-999.0,69,0.00,,,0.00,,2013-03-18 07:22:00,
2013-03-18 00:32:00,58.0,47.0,29.42,North,4,5.0,-999.0,69,0.00,,,0.00,,2013-03-18 07:32:00,
2013-03-18 00:42:00,58.0,47.0,29.42,North,4,5.0,-999.0,69,0.00,,,0.00,,2013-03-18 07:42:00,
2013-03-18 01:12:00,56.0,47.0,29.43,NNE,26,7.0,-999.0,72,0.00,,,0.00,,2013-03-18 08:12:00,
2013-03-18 01:22:00,56.0,47.0,29.43,NNE,26,7.0,-999.0,72,0.00,,,0.00,,2013-03-18 08:22:00,
2013-03-18 01:32:00,56.0,47.0,29.43,NNE,26,7.0,-999.0,72,0.00,,,0.00,,2013-03-18 08:32:00,
2013-03-18 01:42:00,56.0,47.0,29.43,NNE,26,7.0,-999.0,72,0.00,,,0.00,,2013-03-18 08:42:00,
2013-03-18 02:12:00,54.0,46.0,29.43,NE,45,3.0,-999.0,74,0.00,,,0.00,,2013-03-18 09:12:00,
2013-03-18 02:22:00,54.0,46.0,29.43,NE,45,3.0,-999.0,74,0.00,,,0.00,,2013-03-18 09:22:00,
2013-03-18 02:33:00,54.0,46.0,29.43,NE,45,3.0,-999.0,74,0.00,,,0.00,,2013-03-18 09:33:00,
2013-03-18 02:42:00,54.0,46.0,29.43,NE,45,3.0,-999.0,74,0.00,,,0.00,,2013-03-18 09:42:00,
2013-03-18 03:12:00,54.0,46.0,29.42,NNE,17,4.0,-999.0,74,0.00,,,0.00,,2013-03-18 10:12:00,
2013-03-18 03:23:00,54.0,46.0,29.42,NNE,17,4.0,-999.0,74,0.00,,,0.00,,2013-03-18 10:23:00,
2013-03-18 03:33:00,54.0,46.0,29.42,NNE,17,4.0,-999.0,74,0.00,,,0.00,,2013-03-18 10:33:00,
2013-03-18 03:42:00,54.0,46.0,29.42,NNE,17,4.0,-999.0,74,0.00,,,0.00,,2013-03-18 10:42:00,
2013-03-18 04:12:00,53.0,44.0,29.42,SSE,159,4.0,-999.0,73,0.00,,,0.00,,2013-03-18 11:12:00,
2013-03-18 04:22:00,53.0,44.0,29.42,SSE,159,4.0,-999.0,73,0.00,,,0.00,,2013-03-18 11:22:00,
2013-03-18 04:32:00,53.0,44.0,29.42,SSE,159,4.0,-999.0,73,0.00,,,0.00,,2013-03-18 11:32:00,
2013-03-18 04:42:00,53.0,44.0,29.42,SSE,159,4.0,-999.0,73,0.00,,,0.00,,2013-03-18 11:42:00,
2013-03-18 05:12:00,52.0,45.0,29.40,WNW,287,3.0,-999.0,76,0.00,,,0.00,,2013-03-18 12:12:00,
2013-03-18 05:22:00,52.0,45.0,29.40,WNW,287,3.0,-999.0,76,0.00,,,0.00,,2013-03-18 12:22:00,
2013-03-18 05:32:00,52.0,45.0,29.40,WNW,287,3.0,-999.0,76,0.00,,,0.00,,2013-03-18 12:32:00,
2013-03-18 05:42:00,52.0,45.0,29.40,WNW,287,3.0,-999.0,76,0.00,,,0.00,,2013-03-18 12:42:00,
2013-03-18 06:12:00,51.0,44.0,29.42,SE,144,4.0,-999.0,75,0.00,,,0.00,,2013-03-18 13:12:00,
2013-03-18 06:22:00,51.0,44.0,29.42,SE,144,4.0,-999.0,75,0.00,,,0.00,,2013-03-18 13:22:00,
2013-03-18 06:32:00,51.0,44.0,29.42,SE,144,4.0,-999.0,75,0.00,,,0.00,,2013-03-18 13:32:00,
2013-03-18 06:42:00,51.0,44.0,29.42,SE,144,4.0,-999.0,75,0.00,,,0.00,,2013-03-18 13:42:00,
2013-03-18 07:12:00,51.0,44.0,29.44,NW,318,4.0,-999.0,77,0.00,,,0.00,,2013-03-18 14:12:00,
2013-03-18 07:32:00,51.0,44.0,29.44,NW,318,4.0,-999.0,77,0.00,,,0.00,,2013-03-18 14:32:00,
2013-03-18 07:42:00,51.0,44.0,29.44,NW,318,4.0,-999.0,77,0.00,,,0.00,,2013-03-18 14:42:00,
2013-03-18 08:12:00,50.0,44.0,29.45,NE,37,6.0,-999.0,78,0.00,,,0.00,,2013-03-18 15:12:00,
2013-03-18 08:22:00,50.0,44.0,29.45,NE,37,6.0,-999.0,78,0.00,,,0.00,,2013-03-18 15:22:00,
2013-03-18 08:33:00,50.0,44.0,29.45,NE,37,6.0,-999.0,78,0.00,,,0.00,,2013-03-18 15:33:00,
2013-03-18 08:42:00,50.0,44.0,29.45,NE,37,6.0,-999.0,78,0.00,,,0.00,,2013-03-18 15:42:00,
2013-03-18 09:12:00,57.0,44.0,29.48,East,99,1.0,-999.0,62,0.00,,,0.00,,2013-03-18 16:12:00,
2013-03-18 09:22:00,57.0,44.0,29.48,East,99,1.0,-999.0,62,0.00,,,0.00,,2013-03-18 16:22:00,
2013-03-18 09:42:00,57.0,44.0,29.48,East,99,1.0,-999.0,62,0.00,,,0.00,,2013-03-18 16:42:00,
2013-03-18 10:22:00,65.0,44.0,29.49,SE,131,0.0,-999.0,47,0.00,,,0.00,,2013-03-18 17:22:00,
2013-03-18 11:12:00,69.0,45.0,29.49,NW,318,4.0,-999.0,42,0.00,,,0.00,,2013-03-18 18:12:00,
2013-03-18 11:22:00,69.0,45.0,29.49,NW,318,4.0,-999.0,42,0.00,,,0.00,,2013-03-18 18:22:00,
2013-03-18 11:32:00,69.0,45.0,29.49,NW,318,4.0,-999.0,42,0.00,,,0.00,,2013-03-18 18:32:00,
2013-03-18 11:42:00,69.0,45.0,29.49,NW,318,4.0,-999.0,42,0.00,,,0.00,,2013-03-18 18:42:00,
2013-03-18 12:12:00,72.0,42.0,29.46,NNW,332,4.0,-999.0,35,0.00,,,0.00,,2013-03-18 19:12:00,
2013-03-18 12:22:00,72.0,42.0,29.46,NNW,332,4.0,-999.0,35,0.00,,,0.00,,2013-03-18 19:22:00,
2013-03-18 12:32:00,72.0,42.0,29.46,NNW,332,4.0,-999.0,35,0.00,,,0.00,,2013-03-18 19:32:00,
2013-03-18 12:42:00,72.0,42.0,29.46,NNW,332,4.0,-999.0,35,0.00,,,0.00,,2013-03-18 19:42:00,
2013-03-18 13:12:00,71.0,38.0,29.46,West,261,6.0,-999.0,30,0.00,,,-99.99,,2013-03-18 20:12:00,
2013-03-18 13:22:00,71.0,38.0,29.46,West,261,6.0,-999.0,30,0.00,,,-99.99,,2013-03-18 20:22:00,
2013-03-18 13:32:00,71.0,38.0,29.46,West,261,6.0,-999.0,30,0.00,,,-99.99,,2013-03-18 20:32:00,
2013-03-18 13:42:00,71.0,38.0,29.46,West,261,6.0,-999.0,30,0.00,,,-99.99,,2013-03-18 20:42:00,
2013-03-18 14:11:00,70.0,38.0,29.44,WSW,248,4.0,-999.0,31,0.00,,,0.00,,2013-03-18 21:11:00,
2013-03-18 14:22:00,70.0,38.0,29.44,WSW,248,4.0,-999.0,31,0.00,,,0.00,,2013-03-18 21:22:00,
2013-03-18 14:32:00,70.0,38.0,29.44,WSW,248,4.0,-999.0,31,0.00,,,0.00,,2013-03-18 21:32:00,
2013-03-18 14:42:00,70.0,38.0,29.44,WSW,248,4.0,-999.0,31,0.00,,,0.00,,2013-03-18 21:42:00,
2013-03-18 15:13:00,73.0,38.0,29.42,West,270,6.0,-999.0,28,0.00,,,0.00,,2013-03-18 22:13:00,
2013-03-18 15:22:00,73.0,38.0,29.42,West,270,6.0,-999.0,28,0.00,,,0.00,,2013-03-18 22:22:00,
2013-03-18 15:33:00,73.0,38.0,29.42,West,270,6.0,-999.0,28,0.00,,,0.00,,2013-03-18 22:33:00,
2013-03-18 15:42:00,73.0,38.0,29.42,West,270,6.0,-999.0,28,0.00,,,0.00,,2013-03-18 22:42:00,
2013-03-18 16:12:00,72.0,37.0,29.41,SW,228,5.0,-999.0,28,0.00,,,0.00,,2013-03-18 23:12:00,
2013-03-18 16:22:00,72.0,37.0,29.41,SW,228,5.0,-999.0,28,0.00,,,0.00,,2013-03-18 23:22:00,
2013-03-18 16:32:00,72.0,37.0,29.41,SW,228,5.0,-999.0,28,0.00,,,0.00,,2013-03-18 23:32:00,
2013-03-18 16:42:00,72.0,37.0,29.41,SW,228,5.0,-999.0,28,0.00,,,0.00,,2013-03-18 23:42:00,
2013-03-18 17:12:00,70.0,38.0,29.42,WSW,248,2.0,-999.0,31,0.00,,,0.00,,2013-03-19 00:12:00,
2013-03-18 17:22:00,70.0,38.0,29.42,WSW,248,2.0,-999.0,31,0.00,,,0.00,,2013-03-19 00:22:00,
2013-03-18 17:32:00,70.0,38.0,29.42,WSW,248,2.0,-999.0,31,0.00,,,0.00,,2013-03-19 00:32:00,
2013-03-18 17:42:00,70.0,38.0,29.42,WSW,248,2.0,-999.0,31,0.00,,,0.00,,2013-03-19 00:42:00,
2013-03-18 18:12:00,69.0,37.0,29.41,SSW,204,1.0,-999.0,31,0.00,,,0.00,,2013-03-19 01:12:00,
2013-03-18 18:22:00,69.0,37.0,29.41,SSW,204,1.0,-999.0,31,0.00,,,0.00,,2013-03-19 01:22:00,
2013-03-18 18:32:00,69.0,37.0,29.41,SSW,204,1.0,-999.0,31,0.00,,,0.00,,2013-03-19 01:32:00,
2013-03-18 18:42:00,69.0,37.0,29.41,SSW,204,1.0,-999.0,31,0.00,,,0.00,,2013-03-19 01:42:00,
2013-03-18 19:12:00,67.0,42.0,29.39,SW,228,1.0,-999.0,40,0.00,,,0.00,,2013-03-19 02:12:00,
2013-03-18 19:22:00,67.0,42.0,29.39,SW,228,1.0,-999.0,40,0.00,,,0.00,,2013-03-19 02:22:00,
2013-03-18 19:32:00,67.0,42.0,29.39,SW,228,1.0,-999.0,40,0.00,,,0.00,,2013-03-19 02:32:00,
2013-03-18 19:42:00,67.0,42.0,29.39,SW,228,1.0,-999.0,40,0.00,,,0.00,,2013-03-19 02:42:00,
2013-03-18 20:12:00,64.0,45.0,29.40,ENE,69,5.0,-999.0,49,0.00,,,0.00,,2013-03-19 03:12:00,
2013-03-18 20:22:00,64.0,45.0,29.40,ENE,69,5.0,-999.0,49,0.00,,,0.00,,2013-03-19 03:22:00,
2013-03-18 20:32:00,64.0,45.0,29.40,ENE,69,5.0,-999.0,49,0.00,,,0.00,,2013-03-19 03:32:00,
2013-03-18 20:43:00,64.0,45.0,29.40,ENE,69,5.0,-999.0,49,0.00,,,0.00,,2013-03-19 03:43:00,
2013-03-18 21:13:00,62.0,47.0,29.43,ESE,122,6.0,-999.0,58,0.00,,,0.00,,2013-03-19 04:13:00,
2013-03-18 21:23:00,62.0,47.0,29.43,ESE,122,6.0,-999.0,58,0.00,,,0.00,,2013-03-19 04:23:00,
2013-03-18 21:33:00,62.0,47.0,29.43,ESE,122,6.0,-999.0,58,0.00,,,0.00,,2013-03-19 04:33:00,
2013-03-18 21:42:00,62.0,47.0,29.43,ESE,122,6.0,-999.0,58,0.00,,,0.00,,2013-03-19 04:42:00,
2013-03-18 22:12:00,61.0,46.0,29.47,WNW,283,1.0,-999.0,56,0.00,,,0.00,,2013-03-19 05:12:00,
2013-03-18 22:22:00,61.0,46.0,29.47,WNW,283,1.0,-999.0,56,0.00,,,0.00,,2013-03-19 05:22:00,
2013-03-18 22:32:00,61.0,46.0,29.47,WNW,283,1.0,-999.0,56,0.00,,,0.00,,2013-03-19 05:32:00,
2013-03-18 22:42:00,61.0,46.0,29.47,WNW,283,1.0,-999.0,56,0.00,,,0.00,,2013-03-19 05:42:00,
2013-03-18 23:12:00,60.0,47.0,29.47,West,260,3.0,-999.0,61,0.00,,,0.00,,2013-03-19 06:12:00,
2013-03-18 23:22:00,60.0,47.0,29.47,West,260,3.0,-999.0,61,0.00,,,0.00,,2013-03-19 06:22:00,
2013-03-18 23:32:00,60.0,47.0,29.47,West,260,3.0,-999.0,61,0.00,,,0.00,,2013-03-19 06:32:00,
2013-03-18 23:42:00,60.0,47.0,29.47,West,260,3.0,-999.0,61,0.00,,,0.00,,2013-03-19 06:42:00,